createdAt,value
2018-08-13T00:00:48.254Z,16.80
2018-08-13T00:03:16.216Z,16.80
2018-08-13T00:05:43.538Z,16.90
2018-08-13T00:08:10.862Z,16.70
2018-08-13T00:10:38.133Z,16.70
2018-08-13T00:13:05.689Z,16.50
2018-08-13T00:15:33.082Z,16.50
2018-08-13T00:18:00.350Z,16.50
2018-08-13T00:20:27.683Z,16.40
2018-08-13T00:22:55.094Z,16.40
2018-08-13T00:25:22.503Z,16.40
2018-08-13T00:27:49.769Z,16.40
2018-08-13T00:30:17.089Z,16.40
2018-08-13T00:32:44.724Z,16.40
2018-08-13T00:35:12.141Z,16.40
2018-08-13T00:37:39.442Z,16.40
2018-08-13T00:40:08.710Z,16.40
2018-08-13T00:42:36.037Z,16.40
2018-08-13T00:45:03.948Z,16.40
2018-08-13T00:47:31.285Z,16.40
2018-08-13T00:49:58.665Z,16.30
2018-08-13T00:52:26.021Z,16.30
2018-08-13T00:54:53.333Z,16.30
2018-08-13T00:57:20.658Z,16.20
2018-08-13T00:59:47.950Z,16.20
2018-08-13T01:02:15.302Z,16.10
2018-08-13T01:04:42.636Z,16.00
2018-08-13T01:07:09.978Z,16.00
2018-08-13T01:09:37.321Z,16.00
2018-08-13T01:12:04.666Z,15.90
2018-08-13T01:14:32.027Z,15.90
2018-08-13T01:16:59.338Z,16.00
2018-08-13T01:19:26.677Z,15.90
2018-08-13T01:21:53.990Z,16.00
2018-08-13T01:24:21.279Z,16.00
2018-08-13T01:26:48.585Z,16.00
2018-08-13T01:29:15.848Z,15.90
2018-08-13T01:31:43.244Z,15.80
2018-08-13T01:34:10.609Z,15.80
2018-08-13T01:36:37.888Z,15.80
2018-08-13T01:39:07.144Z,15.80
2018-08-13T01:41:34.419Z,15.80
2018-08-13T01:44:01.712Z,15.70
2018-08-13T01:46:28.992Z,15.80
2018-08-13T01:48:56.270Z,15.80
2018-08-13T01:51:23.537Z,15.60
2018-08-13T01:53:50.840Z,15.50
2018-08-13T01:56:18.129Z,15.60
2018-08-13T01:58:45.533Z,15.60
2018-08-13T02:01:12.878Z,15.60
2018-08-13T02:03:40.162Z,15.50
2018-08-13T02:06:07.513Z,15.40
2018-08-13T02:08:34.808Z,15.40
2018-08-13T02:11:02.149Z,15.30
2018-08-13T02:13:29.504Z,15.20
2018-08-13T02:15:56.845Z,15.30
2018-08-13T02:18:24.125Z,15.30
2018-08-13T02:20:51.428Z,15.20
2018-08-13T02:23:18.741Z,15.20
2018-08-13T02:25:46.065Z,15.00
2018-08-13T02:28:13.361Z,15.10
2018-08-13T02:30:40.686Z,15.00
2018-08-13T02:33:08.029Z,15.00
2018-08-13T02:35:35.380Z,15.00
2018-08-13T02:38:02.729Z,15.00
2018-08-13T02:40:30.065Z,15.00
2018-08-13T02:42:57.391Z,14.90
2018-08-13T02:45:24.743Z,15.00
2018-08-13T02:47:52.025Z,14.90
2018-08-13T02:50:19.313Z,14.90
2018-08-13T02:52:46.596Z,14.90
2018-08-13T02:55:13.885Z,14.90
2018-08-13T02:57:41.148Z,14.90
2018-08-13T03:00:09.777Z,14.90
2018-08-13T03:02:37.523Z,14.80
2018-08-13T03:05:06.437Z,14.80
2018-08-13T03:07:33.761Z,14.70
2018-08-13T03:10:01.096Z,14.70
2018-08-13T03:12:28.392Z,14.70
2018-08-13T03:14:55.684Z,14.70
2018-08-13T03:17:27.466Z,14.80
2018-08-13T03:19:54.768Z,14.80
2018-08-13T03:22:22.042Z,14.80
2018-08-13T03:24:49.309Z,14.70
2018-08-13T03:27:16.625Z,14.70
2018-08-13T03:29:43.984Z,14.70
2018-08-13T03:32:11.298Z,14.70
2018-08-13T03:34:38.622Z,14.70
2018-08-13T03:37:05.931Z,14.60
2018-08-13T03:39:33.287Z,14.60
2018-08-13T03:42:00.842Z,14.40
2018-08-13T03:44:28.164Z,14.30
2018-08-13T03:46:55.512Z,14.30
2018-08-13T03:49:22.761Z,14.30
2018-08-13T03:51:50.092Z,14.20
2018-08-13T03:54:17.415Z,14.10
2018-08-13T03:56:44.733Z,14.10
2018-08-13T03:59:12.026Z,14.10
2018-08-13T04:01:39.406Z,14.10
2018-08-13T04:04:06.677Z,14.10
2018-08-13T04:06:33.985Z,14.10
2018-08-13T04:09:01.286Z,14.10
2018-08-13T04:11:28.605Z,14.00
2018-08-13T04:13:55.872Z,14.20
2018-08-13T04:16:23.168Z,14.20
2018-08-13T04:18:50.453Z,14.20
2018-08-13T04:21:17.748Z,14.30
2018-08-13T04:23:45.067Z,14.30
2018-08-13T04:26:12.378Z,14.30
2018-08-13T04:28:39.704Z,14.30
2018-08-13T04:31:07.004Z,14.40
2018-08-13T04:33:34.258Z,14.50
2018-08-13T04:36:01.560Z,14.50
2018-08-13T04:38:28.898Z,14.50
2018-08-13T04:40:56.176Z,14.60
2018-08-13T04:43:23.505Z,14.60
2018-08-13T04:45:50.788Z,14.60
2018-08-13T04:48:18.141Z,14.50
2018-08-13T04:50:45.417Z,14.60
2018-08-13T04:53:12.773Z,14.70
2018-08-13T04:55:40.112Z,14.90
2018-08-13T04:58:07.397Z,15.10
2018-08-13T05:00:34.705Z,15.30
2018-08-13T05:03:01.980Z,15.40
2018-08-13T05:05:29.257Z,15.70
2018-08-13T05:07:56.545Z,16.00
2018-08-13T05:10:23.796Z,17.20
2018-08-13T05:12:51.154Z,18.80
2018-08-13T05:15:18.389Z,20.50
2018-08-13T05:17:45.696Z,22.10
2018-08-13T05:20:13.015Z,22.90
2018-08-13T05:22:40.288Z,23.00
2018-08-13T05:25:08.756Z,24.00
2018-08-13T05:27:36.060Z,24.60
2018-08-13T05:30:04.786Z,22.80
2018-08-13T05:32:32.049Z,21.10
2018-08-13T05:34:59.364Z,19.90
2018-08-13T05:37:26.692Z,19.10
2018-08-13T05:39:54.025Z,18.70
2018-08-13T05:42:21.346Z,18.30
2018-08-13T05:44:48.622Z,18.00
2018-08-13T05:47:15.912Z,17.80
2018-08-13T05:49:43.243Z,17.60
2018-08-13T05:52:10.525Z,17.40
2018-08-13T05:54:37.804Z,17.30
2018-08-13T05:57:05.088Z,17.20
2018-08-13T05:59:32.369Z,17.30
2018-08-13T06:01:59.661Z,17.30
2018-08-13T06:04:26.956Z,17.40
2018-08-13T06:06:54.228Z,17.40
2018-08-13T06:09:21.532Z,17.50
2018-08-13T06:11:48.833Z,17.60
2018-08-13T06:14:16.196Z,17.60
2018-08-13T06:16:43.850Z,17.70
2018-08-13T06:19:11.228Z,17.70
2018-08-13T06:21:38.614Z,17.80
2018-08-13T06:24:05.965Z,17.80
2018-08-13T06:26:33.269Z,17.90
2018-08-13T06:29:00.600Z,17.80
2018-08-13T06:31:27.901Z,17.70
2018-08-13T06:33:55.263Z,17.70
2018-08-13T06:36:22.635Z,17.70
2018-08-13T06:38:49.908Z,17.80
2018-08-13T06:41:17.269Z,17.70
2018-08-13T06:43:44.598Z,17.60
2018-08-13T06:46:11.925Z,17.70
2018-08-13T06:48:39.273Z,17.60
2018-08-13T06:51:06.580Z,17.70
2018-08-13T06:53:34.744Z,17.70
2018-08-13T06:56:02.006Z,17.70
2018-08-13T06:58:29.359Z,17.70
2018-08-13T07:00:56.626Z,17.70
2018-08-13T07:03:23.956Z,17.70
2018-08-13T07:05:51.228Z,17.80
2018-08-13T07:08:18.511Z,17.90
2018-08-13T07:10:45.824Z,17.80
2018-08-13T07:13:13.147Z,17.80
2018-08-13T07:15:40.529Z,17.80
2018-08-13T07:18:07.852Z,17.80
2018-08-13T07:20:35.160Z,17.80
2018-08-13T07:23:02.465Z,17.80
2018-08-13T07:25:29.789Z,17.80
2018-08-13T07:27:57.114Z,17.90
2018-08-13T07:30:24.393Z,17.90
2018-08-13T07:32:51.688Z,18.00
2018-08-13T07:35:19.027Z,18.10
2018-08-13T07:37:46.341Z,18.00
2018-08-13T07:40:15.126Z,18.10
2018-08-13T07:42:42.722Z,18.10
2018-08-13T07:45:10.033Z,18.10
2018-08-13T07:47:37.416Z,18.10
2018-08-13T07:50:05.973Z,18.10
2018-08-13T07:52:33.308Z,18.10
2018-08-13T07:55:00.632Z,18.10
2018-08-13T07:57:27.909Z,18.30
2018-08-13T07:59:55.191Z,18.40
2018-08-13T08:02:22.468Z,18.50
2018-08-13T08:04:49.817Z,18.70
2018-08-13T08:07:17.161Z,18.90
2018-08-13T08:09:44.467Z,19.10
2018-08-13T08:12:11.787Z,19.30
2018-08-13T08:14:39.316Z,19.60
2018-08-13T08:17:06.620Z,19.70
2018-08-13T08:19:33.940Z,19.90
2018-08-13T08:22:01.245Z,20.00
2018-08-13T08:24:28.549Z,20.10
2018-08-13T08:26:55.848Z,20.20
2018-08-13T08:29:23.166Z,20.20
2018-08-13T08:31:50.404Z,20.20
2018-08-13T08:34:17.739Z,20.20
2018-08-13T08:36:45.104Z,20.30
2018-08-13T08:39:13.755Z,20.30
2018-08-13T08:41:41.449Z,20.30
2018-08-13T08:44:09.449Z,20.30
2018-08-13T08:46:36.811Z,20.40
2018-08-13T08:49:04.176Z,20.40
2018-08-13T08:51:31.476Z,20.40
2018-08-13T08:53:58.841Z,20.50
2018-08-13T08:56:26.217Z,20.60
2018-08-13T08:58:53.541Z,20.50
2018-08-13T09:01:20.963Z,20.60
2018-08-13T09:03:48.232Z,20.60
2018-08-13T09:06:15.520Z,20.70
2018-08-13T09:08:42.843Z,20.70
2018-08-13T09:11:10.165Z,20.80
2018-08-13T09:13:37.769Z,20.90
2018-08-13T09:16:05.084Z,21.00
2018-08-13T09:18:43.861Z,21.00
2018-08-13T09:21:22.537Z,21.00
2018-08-13T09:24:01.440Z,21.00
2018-08-13T09:27:43.719Z,21.00
2018-08-13T09:30:22.484Z,20.90
2018-08-13T09:33:01.306Z,20.90
2018-08-13T09:35:32.521Z,20.80
2018-08-13T09:37:59.845Z,20.80
2018-08-13T09:40:28.233Z,20.80
2018-08-13T09:42:55.691Z,20.90
2018-08-13T09:45:23.449Z,20.90
2018-08-13T09:47:50.784Z,20.90
2018-08-13T09:50:18.907Z,20.90
2018-08-13T09:52:46.860Z,20.90
2018-08-13T09:55:14.950Z,20.90
2018-08-13T09:57:43.293Z,20.80
2018-08-13T10:00:17.228Z,20.80
2018-08-13T10:02:45.513Z,20.80
2018-08-13T10:05:12.925Z,20.80
2018-08-13T10:07:40.539Z,20.80
2018-08-13T10:10:08.781Z,20.70
2018-08-13T10:12:36.243Z,20.70
2018-08-13T10:15:04.824Z,20.70
2018-08-13T10:17:32.229Z,20.80
2018-08-13T10:19:59.505Z,20.90
2018-08-13T10:22:26.810Z,20.90
2018-08-13T10:24:54.073Z,20.90
2018-08-13T10:27:21.407Z,20.90
2018-08-13T10:29:48.768Z,21.00
2018-08-13T10:32:16.091Z,21.00
2018-08-13T10:34:43.366Z,20.90
2018-08-13T10:37:10.644Z,20.90
2018-08-13T10:39:37.924Z,20.90
2018-08-13T10:42:05.437Z,20.90
2018-08-13T10:44:32.749Z,20.90
2018-08-13T10:47:00.094Z,20.90
2018-08-13T10:49:27.441Z,21.00
2018-08-13T10:51:54.708Z,21.00
2018-08-13T10:54:22.148Z,20.90
2018-08-13T10:56:49.420Z,21.00
2018-08-13T10:59:16.724Z,21.00
2018-08-13T11:01:44.090Z,21.10
2018-08-13T11:04:11.465Z,21.10
2018-08-13T11:06:38.773Z,21.10
2018-08-13T11:09:07.735Z,21.10
2018-08-13T11:11:35.204Z,21.10
2018-08-13T11:14:02.640Z,21.10
2018-08-13T11:16:29.945Z,21.10
2018-08-13T11:18:57.245Z,21.20
2018-08-13T11:21:24.496Z,21.10
2018-08-13T11:23:51.967Z,21.20
2018-08-13T11:26:19.217Z,21.20
2018-08-13T11:28:46.649Z,21.20
2018-08-13T11:31:13.990Z,21.20
2018-08-13T11:33:41.289Z,21.20
2018-08-13T11:36:08.553Z,21.10
2018-08-13T11:38:35.841Z,21.10
2018-08-13T11:41:03.197Z,21.10
2018-08-13T11:43:30.525Z,21.10
2018-08-13T11:45:57.842Z,21.00
2018-08-13T11:48:25.160Z,21.00
2018-08-13T11:50:52.423Z,20.90
2018-08-13T11:53:19.828Z,20.80
2018-08-13T11:55:47.168Z,20.80
2018-08-13T11:58:14.557Z,20.80
2018-08-13T12:00:41.862Z,20.80
2018-08-13T12:03:09.134Z,20.80
2018-08-13T12:05:36.449Z,20.80
2018-08-13T12:08:03.736Z,20.80
2018-08-13T12:10:31.109Z,20.80
2018-08-13T12:12:58.368Z,20.90
2018-08-13T12:15:25.709Z,20.90
2018-08-13T12:17:52.977Z,21.00
2018-08-13T12:20:21.101Z,21.00
2018-08-13T12:22:48.437Z,20.90
2018-08-13T12:25:20.724Z,21.00
2018-08-13T12:27:48.030Z,21.00
2018-08-13T12:30:15.429Z,21.00
2018-08-13T12:32:42.840Z,21.10
2018-08-13T12:35:10.169Z,21.10
2018-08-13T12:37:37.456Z,21.00
2018-08-13T12:40:06.884Z,21.00
2018-08-13T12:42:34.263Z,21.00
2018-08-13T12:45:01.660Z,20.90
2018-08-13T12:47:29.113Z,20.90
2018-08-13T12:49:56.669Z,20.80
2018-08-13T12:52:24.103Z,20.80
2018-08-13T12:54:51.404Z,20.80
2018-08-13T12:57:18.698Z,20.80
2018-08-13T12:59:46.056Z,20.70
2018-08-13T13:02:13.387Z,20.70
2018-08-13T13:04:40.754Z,20.80
2018-08-13T13:07:08.158Z,20.80
2018-08-13T13:09:35.531Z,20.70
2018-08-13T13:12:02.844Z,20.70
2018-08-13T13:14:30.184Z,20.70
2018-08-13T13:16:57.464Z,20.70
2018-08-13T13:19:24.804Z,20.70
2018-08-13T13:21:52.077Z,20.70
2018-08-13T13:24:19.409Z,20.60
2018-08-13T13:26:46.758Z,20.60
2018-08-13T13:29:14.172Z,20.60
2018-08-13T13:31:41.453Z,20.60
2018-08-13T13:34:08.785Z,20.70
2018-08-13T13:36:36.090Z,20.70
2018-08-13T13:39:05.866Z,20.70
2018-08-13T13:41:33.225Z,20.70
2018-08-13T13:44:00.576Z,20.80
2018-08-13T13:46:27.940Z,20.80
2018-08-13T13:48:55.225Z,20.80
2018-08-13T13:51:22.646Z,20.80
2018-08-13T13:53:50.022Z,20.90
2018-08-13T13:56:17.340Z,20.90
2018-08-13T13:58:44.705Z,21.00
2018-08-13T14:01:12.145Z,21.10
2018-08-13T14:03:39.468Z,21.10
2018-08-13T14:06:06.910Z,21.00
2018-08-13T14:08:34.202Z,21.00
2018-08-13T14:11:01.621Z,21.00
2018-08-13T14:13:28.922Z,21.00
2018-08-13T14:15:56.284Z,21.00
2018-08-13T14:18:23.721Z,21.00
2018-08-13T14:20:51.044Z,21.00
2018-08-13T14:23:18.408Z,21.00
2018-08-13T14:25:45.753Z,21.00
2018-08-13T14:28:13.098Z,21.20
2018-08-13T14:30:40.440Z,21.20
2018-08-13T14:33:07.836Z,21.30
2018-08-13T14:35:35.232Z,21.30
2018-08-13T14:38:02.555Z,21.30
2018-08-13T14:40:29.863Z,21.40
2018-08-13T14:42:57.253Z,21.40
2018-08-13T14:45:24.646Z,21.50
2018-08-13T14:47:52.590Z,21.50
2018-08-13T14:50:19.957Z,21.50
2018-08-13T14:52:47.964Z,21.60
2018-08-13T14:55:18.689Z,21.60
2018-08-13T14:57:46.210Z,21.80
2018-08-13T15:00:24.607Z,21.80
2018-08-13T15:02:52.636Z,21.90
2018-08-13T15:05:20.209Z,22.00
2018-08-13T15:07:47.606Z,22.10
2018-08-13T15:10:20.352Z,22.20
2018-08-13T15:12:47.800Z,22.40
2018-08-13T15:15:15.133Z,22.60
2018-08-13T15:17:42.440Z,22.80
2018-08-13T15:20:14.839Z,22.80
2018-08-13T15:22:42.130Z,22.90
2018-08-13T15:25:09.494Z,23.00
2018-08-13T15:27:37.134Z,23.10
2018-08-13T15:30:07.020Z,23.10
2018-08-13T15:32:34.391Z,23.20
2018-08-13T15:35:01.653Z,23.20
2018-08-13T15:37:28.965Z,23.20
2018-08-13T15:39:56.384Z,23.20
2018-08-13T15:42:23.757Z,23.20
2018-08-13T15:44:51.107Z,23.20
2018-08-13T15:47:18.474Z,23.20
2018-08-13T15:49:45.941Z,23.20
2018-08-13T15:52:13.237Z,23.20
2018-08-13T15:54:40.580Z,23.20
2018-08-13T15:57:08.077Z,23.30
2018-08-13T15:59:35.433Z,23.40
2018-08-13T16:02:02.865Z,23.40
2018-08-13T16:04:30.292Z,23.40
2018-08-13T16:06:57.636Z,23.40
2018-08-13T16:09:25.052Z,23.40
2018-08-13T16:11:52.549Z,23.50
2018-08-13T16:14:19.905Z,23.50
2018-08-13T16:16:47.395Z,23.40
2018-08-13T16:19:14.826Z,23.30
2018-08-13T16:21:42.188Z,23.40
2018-08-13T16:24:09.518Z,23.40
2018-08-13T16:26:37.109Z,23.50
2018-08-13T16:29:04.753Z,23.60
2018-08-13T16:31:32.250Z,23.50
2018-08-13T16:33:59.637Z,23.60
2018-08-13T16:36:26.987Z,23.50
2018-08-13T16:38:54.373Z,23.40
2018-08-13T16:41:21.700Z,23.30
2018-08-13T16:43:49.074Z,23.30
2018-08-13T16:46:16.480Z,23.20
2018-08-13T16:48:43.876Z,23.10
2018-08-13T16:51:11.237Z,23.00
2018-08-13T16:53:38.585Z,22.90
2018-08-13T16:56:06.009Z,22.90
2018-08-13T16:58:33.359Z,22.80
2018-08-13T17:01:00.692Z,22.70
2018-08-13T17:03:27.977Z,22.50
2018-08-13T17:05:55.284Z,22.20
2018-08-13T17:08:23.236Z,21.80
2018-08-13T17:10:50.544Z,21.30
2018-08-13T17:13:17.888Z,21.10
2018-08-13T17:15:45.262Z,21.00
2018-08-13T17:18:12.641Z,20.80
2018-08-13T17:20:40.838Z,20.70
2018-08-13T17:23:08.184Z,20.60
2018-08-13T17:25:35.555Z,20.60
2018-08-13T17:28:02.968Z,20.50
2018-08-13T17:30:30.284Z,20.30
2018-08-13T17:32:58.882Z,20.20
2018-08-13T17:35:30.779Z,20.10
2018-08-13T17:37:58.585Z,20.10
2018-08-13T17:40:26.177Z,20.00
2018-08-13T17:42:54.026Z,19.90
2018-08-13T17:45:21.477Z,19.90
2018-08-13T17:47:48.784Z,20.00
2018-08-13T17:50:18.489Z,20.10
2018-08-13T17:52:45.868Z,20.10
2018-08-13T17:55:13.779Z,20.10
2018-08-13T17:57:41.669Z,20.20
2018-08-13T18:00:11.953Z,20.20
2018-08-13T18:02:39.263Z,20.20
2018-08-13T18:05:09.087Z,20.30
2018-08-13T18:07:36.435Z,20.30
2018-08-13T18:10:05.881Z,20.30
2018-08-13T18:12:33.217Z,20.20
2018-08-13T18:15:00.653Z,20.20
2018-08-13T18:17:27.945Z,20.30
2018-08-13T18:19:55.242Z,20.30
2018-08-13T18:22:22.529Z,20.20
2018-08-13T18:24:49.816Z,20.20
2018-08-13T18:27:17.113Z,20.20
2018-08-13T18:29:44.357Z,20.10
2018-08-13T18:32:11.824Z,20.10
2018-08-13T18:34:39.100Z,20.10
2018-08-13T18:37:06.461Z,20.10
2018-08-13T18:39:33.794Z,20.00
2018-08-13T18:42:01.092Z,20.00
2018-08-13T18:44:28.406Z,19.90
2018-08-13T18:46:55.711Z,19.90
2018-08-13T18:49:23.005Z,19.90
2018-08-13T18:51:50.308Z,19.90
2018-08-13T18:54:17.576Z,19.80
2018-08-13T18:56:44.929Z,19.80
2018-08-13T18:59:12.238Z,19.80
2018-08-13T19:01:39.603Z,19.70
2018-08-13T19:04:07.217Z,19.70
2018-08-13T19:06:34.501Z,19.70
2018-08-13T19:09:01.880Z,19.70
2018-08-13T19:11:29.201Z,19.70
2018-08-13T19:13:56.508Z,19.70
2018-08-13T19:16:23.788Z,19.70
2018-08-13T19:18:51.111Z,19.70
2018-08-13T19:21:18.395Z,19.70
2018-08-13T19:23:45.673Z,19.60
2018-08-13T19:26:13.064Z,19.60
2018-08-13T19:28:40.342Z,19.50
2018-08-13T19:31:07.653Z,19.50
2018-08-13T19:33:34.943Z,19.50
2018-08-13T19:36:02.249Z,19.50
2018-08-13T19:38:29.520Z,19.50
2018-08-13T19:40:56.854Z,19.50
2018-08-13T19:43:24.135Z,19.40
2018-08-13T19:45:51.454Z,19.40
2018-08-13T19:48:18.776Z,19.40
2018-08-13T19:50:46.081Z,19.40
2018-08-13T19:53:13.372Z,19.40
2018-08-13T19:55:40.690Z,19.40
2018-08-13T19:58:07.949Z,19.40
2018-08-13T20:00:35.231Z,19.40
2018-08-13T20:03:02.535Z,19.40
2018-08-13T20:05:29.816Z,19.40
2018-08-13T20:07:57.141Z,19.40
2018-08-13T20:10:24.511Z,19.30
2018-08-13T20:12:51.969Z,19.30
2018-08-13T20:15:19.280Z,19.30
2018-08-13T20:17:46.610Z,19.30
2018-08-13T20:20:18.251Z,19.30
2018-08-13T20:22:46.296Z,19.30
2018-08-13T20:25:14.903Z,19.30
2018-08-13T20:27:42.768Z,19.30
2018-08-13T20:30:15.922Z,19.30
2018-08-13T20:32:44.593Z,19.30
2018-08-13T20:35:11.910Z,19.30
2018-08-13T20:37:39.308Z,19.20
2018-08-13T20:40:08.661Z,19.20
2018-08-13T20:42:37.037Z,19.20
2018-08-13T20:45:06.467Z,19.10
2018-08-13T20:47:33.773Z,19.10
2018-08-13T20:50:01.078Z,19.10
2018-08-13T20:52:28.501Z,19.10
2018-08-13T20:54:55.771Z,19.20
2018-08-13T20:57:23.084Z,19.20
2018-08-13T20:59:50.345Z,19.10
2018-08-13T21:02:17.601Z,19.00
2018-08-13T21:04:44.900Z,18.90
2018-08-13T21:07:12.216Z,18.90
2018-08-13T21:09:39.578Z,18.90
2018-08-13T21:12:06.908Z,18.70
2018-08-13T21:14:34.198Z,18.60
2018-08-13T21:17:01.515Z,18.50
2018-08-13T21:19:28.784Z,18.50
2018-08-13T21:21:56.100Z,18.60
2018-08-13T21:24:23.387Z,18.70
2018-08-13T21:26:50.716Z,18.60
2018-08-13T21:29:18.001Z,18.60
2018-08-13T21:31:45.305Z,18.50
2018-08-13T21:34:12.568Z,18.50
2018-08-13T21:36:39.872Z,18.40
2018-08-13T21:39:09.112Z,18.20
2018-08-13T21:41:36.612Z,18.20
2018-08-13T21:44:04.573Z,18.10
2018-08-13T21:46:31.900Z,18.10
2018-08-13T21:48:59.176Z,18.00
2018-08-13T21:51:26.489Z,18.00
2018-08-13T21:53:53.736Z,18.10
2018-08-13T21:56:21.040Z,18.10
2018-08-13T21:58:48.352Z,18.10
2018-08-13T22:01:47.221Z,18.00
2018-08-13T22:04:16.003Z,17.90
2018-08-13T22:06:43.782Z,17.80
2018-08-13T22:09:11.265Z,17.80
2018-08-13T22:11:38.601Z,17.80
2018-08-13T22:14:06.542Z,17.80
2018-08-13T22:16:33.820Z,17.80
2018-08-13T22:19:01.137Z,17.80
2018-08-13T22:21:28.468Z,17.80
2018-08-13T22:24:07.206Z,17.80
2018-08-13T22:26:34.549Z,17.70
2018-08-13T22:29:01.855Z,17.80
2018-08-13T22:31:29.142Z,17.80
2018-08-13T22:33:56.378Z,17.90
2018-08-13T22:36:23.773Z,17.80
2018-08-13T22:38:51.057Z,17.80
2018-08-13T22:41:18.369Z,17.80
2018-08-13T22:43:45.661Z,17.70
2018-08-13T22:46:12.998Z,17.70
2018-08-13T22:48:40.316Z,17.70
2018-08-13T22:51:07.616Z,17.70
2018-08-13T22:53:35.141Z,17.70
2018-08-13T22:56:02.519Z,17.60
2018-08-13T22:58:29.860Z,17.60
2018-08-13T23:00:57.202Z,17.50
2018-08-13T23:03:24.512Z,17.50
2018-08-13T23:05:51.860Z,17.40
2018-08-13T23:08:19.360Z,17.50
2018-08-13T23:10:46.617Z,17.40
2018-08-13T23:13:15.408Z,17.50
2018-08-13T23:15:42.892Z,17.50
2018-08-13T23:18:10.244Z,17.50
2018-08-13T23:20:37.721Z,17.40
2018-08-13T23:23:05.127Z,17.40
2018-08-13T23:25:33.989Z,17.40
2018-08-13T23:28:02.605Z,17.40
2018-08-13T23:30:30.278Z,17.40
2018-08-13T23:32:58.441Z,17.40
2018-08-13T23:35:26.493Z,17.30
2018-08-13T23:37:54.012Z,17.30
2018-08-13T23:40:21.552Z,17.30
2018-08-13T23:42:48.871Z,17.30
2018-08-13T23:45:17.757Z,17.30
2018-08-13T23:47:45.069Z,17.20
2018-08-13T23:50:14.937Z,17.20
2018-08-13T23:52:42.314Z,17.20
2018-08-13T23:55:13.640Z,17.10
2018-08-13T23:57:40.957Z,17.10
